Time;durP1;ratioP1;P1;durP2;ratioP2;P2;SDS_P1;SDS_P2;PMS_P1;PMS_P2;Temp;Humidity;BMP_temperature;BMP_pressure;BME280_temperature;BME280_humidity;BME280_pressure;Samples;Min_cycle;Max_cycle;Signal;HPM_P1;HPM_P2
2023/01/13 00:01:28;;;;;;;34.38;5.07;;;;;;;;;;6102506;19;20014;-69
2023/01/13 00:03:36;;;;;;;20.65;4.75;;;;;;;;;;6102295;19;20029;-70
2023/01/13 00:05:43;;;;;;;20.73;4.22;;;;;;;;;;6106089;19;20475;-70
2023/01/13 00:07:50;;;;;;;26.17;4.53;;;;;;;;;;6105745;19;20031;-70
2023/01/13 00:09:55;;;;;;;25.65;5.63;;;;;;;;;;6103989;19;20289;-70
2023/01/13 00:12:00;;;;;;;23.05;5.30;;;;;;;;;;6104582;19;20021;-69
2023/01/13 00:14:05;;;;;;;19.10;3.88;;;;;;;;;;6106179;19;20019;-70
2023/01/13 00:16:14;;;;;;;28.27;4.97;;;;;;;;;;6105426;19;20010;-70
2023/01/13 00:18:19;;;;;;;21.63;4.85;;;;;;;;;;6102586;19;20010;-70
2023/01/13 00:20:24;;;;;;;24.35;4.28;;;;;;;;;;6101490;19;20003;-71
2023/01/13 00:22:30;;;;;;;23.88;4.70;;;;;;;;;;6104240;19;20010;-70
2023/01/13 00:24:40;;;;;;;23.83;4.70;;;;;;;;;;6103361;19;20011;-69
2023/01/13 00:26:45;;;;;;;29.95;5.68;;;;;;;;;;6100253;19;20780;-69
2023/01/13 00:28:50;;;;;;;17.08;4.75;;;;;;;;;;6106050;19;20015;-69
2023/01/13 00:30:57;;;;;;;20.92;5.15;;;;;;;;;;6103217;19;20011;-70
2023/01/13 00:33:05;;;;;;;27.48;5.47;;;;;;;;;;6105206;19;20503;-69
2023/01/13 00:35:10;;;;;;;23.10;5.22;;;;;;;;;;6105592;19;20562;-69
2023/01/13 00:37:15;;;;;;;23.60;5.38;;;;;;;;;;6102848;19;20014;-69
2023/01/13 00:39:20;;;;;;;23.98;5.57;;;;;;;;;;6104803;19;20435;-69
2023/01/13 00:43:21;;;;;;;28.88;5.45;;;;;;;;;;6104643;19;20014;-70
2023/01/13 00:43:50;;;;;;;24.63;5.45;;;;;;;;;;6104739;19;20047;-69
2023/01/13 00:45:55;;;;;;;30.80;5.65;;;;;;;;;;6105675;19;20523;-69
2023/01/13 00:48:00;;;;;;;30.58;5.80;;;;;;;;;;6103595;19;20034;-69
2023/01/13 00:50:04;;;;;;;30.98;5.47;;;;;;;;;;6102253;19;20518;-69
2023/01/13 00:52:09;;;;;;;27.33;5.68;;;;;;;;;;6099750;19;20027;-68
2023/01/13 00:54:17;;;;;;;31.27;5.40;;;;;;;;;;6104800;19;20467;-70
2023/01/13 00:56:23;;;;;;;27.15;5.63;;;;;;;;;;6103120;19;20017;-70
2023/01/13 00:58:47;;;;;;;29.35;5.63;;;;;;;;;;6080276;19;20074;-69
2023/01/13 01:00:52;;;;;;;35.60;6.07;;;;;;;;;;6098964;19;20020;-70
2023/01/13 01:02:57;;;;;;;30.38;6.03;;;;;;;;;;6106178;19;20412;-70
2023/01/13 01:05:05;;;;;;;34.08;6.30;;;;;;;;;;6101739;19;20010;-70
2023/01/13 01:07:10;;;;;;;21.85;4.45;;;;;;;;;;6102153;19;20018;-70
2023/01/13 01:09:15;;;;;;;21.40;6.28;;;;;;;;;;6102242;19;20006;-72
2023/01/13 01:11:22;;;;;;;18.80;4.78;;;;;;;;;;6105392;19;20118;-70
2023/01/13 01:13:26;;;;;;;41.20;8.05;;;;;;;;;;6103118;19;20015;-70
2023/01/13 01:15:37;;;;;;;26.80;4.88;;;;;;;;;;6104390;19;20006;-71
2023/01/13 01:17:42;;;;;;;24.45;5.95;;;;;;;;;;6104341;19;20010;-70
2023/01/13 01:19:47;;;;;;;28.92;4.90;;;;;;;;;;6100376;19;20006;-70
2023/01/13 01:21:53;;;;;;;25.92;6.25;;;;;;;;;;6103502;19;20459;-69
2023/01/13 01:24:01;;;;;;;30.50;5.22;;;;;;;;;;6102301;19;20013;-69
2023/01/13 01:26:07;;;;;;;28.27;5.07;;;;;;;;;;6103494;19;20338;-69
2023/01/13 01:28:12;;;;;;;28.27;6.97;;;;;;;;;;6101838;19;20019;-70
2023/01/13 01:30:18;;;;;;;26.63;5.88;;;;;;;;;;6102685;19;20140;-69
2023/01/13 01:32:26;;;;;;;28.50;5.65;;;;;;;;;;6102150;19;20022;-70
2023/01/13 01:34:34;;;;;;;26.08;5.18;;;;;;;;;;6103791;19;20491;-68
2023/01/13 01:36:39;;;;;;;30.25;5.93;;;;;;;;;;6100238;19;20010;-68
2023/01/13 01:38:44;;;;;;;17.67;4.78;;;;;;;;;;6102373;19;20074;-69
2023/01/13 01:40:49;;;;;;;21.42;4.63;;;;;;;;;;6103155;19;20010;-69
2023/01/13 01:45:16;;;;;;;41.38;6.03;;;;;;;;;;6103016;19;20018;-69
2023/01/13 01:47:22;;;;;;;29.45;6.85;;;;;;;;;;6104776;19;20031;-69
2023/01/13 01:49:33;;;;;;;26.20;5.75;;;;;;;;;;6102040;19;20488;-71
2023/01/13 01:51:41;;;;;;;27.42;6.10;;;;;;;;;;6101234;19;20015;-69
2023/01/13 01:53:46;;;;;;;40.92;7.28;;;;;;;;;;6100939;19;20018;-70
2023/01/13 01:55:52;;;;;;;29.90;5.70;;;;;;;;;;6102972;19;20018;-68
2023/01/13 01:58:00;;;;;;;33.70;5.97;;;;;;;;;;6102529;19;20372;-69
2023/01/13 02:00:06;;;;;;;18.52;5.30;;;;;;;;;;6103892;19;20015;-69
2023/01/13 02:02:12;;;;;;;42.17;6.38;;;;;;;;;;6102477;19;20010;-69
2023/01/13 02:04:20;;;;;;;28.50;5.40;;;;;;;;;;6102797;19;20090;-70
2023/01/13 02:06:29;;;;;;;26.90;5.20;;;;;;;;;;6104331;19;20038;-68
2023/01/13 02:08:34;;;;;;;28.67;6.53;;;;;;;;;;6101730;19;20014;-69
2023/01/13 02:10:39;;;;;;;34.45;6.07;;;;;;;;;;6099751;19;20019;-68
2023/01/13 02:12:44;;;;;;;23.27;5.35;;;;;;;;;;6101189;19;20011;-70
2023/01/13 02:14:48;;;;;;;29.65;6.32;;;;;;;;;;6102402;19;20342;-69
2023/01/13 02:16:59;;;;;;;17.50;5.47;;;;;;;;;;6099599;19;20078;-69
2023/01/13 02:19:09;;;;;;;32.22;5.63;;;;;;;;;;6102928;19;20054;-69
2023/01/13 02:21:34;;;;;;;33.40;7.82;;;;;;;;;;6097501;19;20066;-70
2023/01/13 02:26:52;;;;;;;28.35;5.65;;;;;;;;;;6096583;19;20014;-70
2023/01/13 02:31:46;;;;;;;27.55;5.20;;;;;;;;;;6101694;19;20015;-68
2023/01/13 02:34:03;;;;;;;36.88;5.63;;;;;;;;;;6103090;19;20023;-69
2023/01/13 02:36:14;;;;;;;18.55;5.03;;;;;;;;;;6102088;19;20015;-68
2023/01/13 02:38:24;;;;;;;21.13;5.43;;;;;;;;;;6103418;19;20010;-69
2023/01/13 02:40:34;;;;;;;25.10;5.70;;;;;;;;;;6101196;19;20036;-68
2023/01/13 02:45:05;;;;;;;27.65;5.30;;;;;;;;;;6104805;19;20583;-69
2023/01/13 02:47:17;;;;;;;27.75;5.97;;;;;;;;;;6102851;19;20006;-69
2023/01/13 02:49:27;;;;;;;18.40;4.03;;;;;;;;;;6099703;19;20007;-70
2023/01/13 02:51:34;;;;;;;24.27;4.45;;;;;;;;;;6105464;19;20029;-68
2023/01/13 02:53:42;;;;;;;18.10;5.57;;;;;;;;;;6097660;19;20011;-68
2023/01/13 02:55:49;;;;;;;20.15;5.05;;;;;;;;;;6100281;19;20363;-69
2023/01/13 02:57:54;;;;;;;23.50;4.40;;;;;;;;;;6103290;19;20014;-68
2023/01/13 02:59:59;;;;;;;22.52;4.28;;;;;;;;;;6100769;19;20010;-68
2023/01/13 03:02:05;;;;;;;18.30;4.07;;;;;;;;;;6102315;19;20293;-67
2023/01/13 03:04:48;;;;;;;24.35;4.10;;;;;;;;;;6103100;19;20101;-69
2023/01/13 03:07:00;;;;;;;22.33;5.05;;;;;;;;;;6096725;19;20113;-68
2023/01/13 03:09:09;;;;;;;20.10;3.75;;;;;;;;;;6101241;19;20843;-70
2023/01/13 03:11:15;;;;;;;21.35;5.53;;;;;;;;;;6101266;19;20029;-70
2023/01/13 03:13:29;;;;;;;20.10;4.75;;;;;;;;;;6102961;19;20351;-70
2023/01/13 03:15:40;;;;;;;15.93;3.28;;;;;;;;;;6100743;19;20502;-69
2023/01/13 03:17:51;;;;;;;19.38;4.18;;;;;;;;;;6102177;19;20006;-70
2023/01/13 03:20:05;;;;;;;19.15;4.75;;;;;;;;;;6101685;19;20049;-69
2023/01/13 03:22:19;;;;;;;18.23;4.10;;;;;;;;;;6101981;19;20010;-69
2023/01/13 03:24:28;;;;;;;24.40;4.35;;;;;;;;;;6099677;19;20007;-69
2023/01/13 03:26:36;;;;;;;15.82;4.28;;;;;;;;;;6103262;19;20027;-69
2023/01/13 03:28:49;;;;;;;15.65;3.97;;;;;;;;;;6099271;19;20318;-68
2023/01/13 03:30:58;;;;;;;16.17;3.88;;;;;;;;;;6101317;19;20496;-70
2023/01/13 03:33:06;;;;;;;12.43;3.08;;;;;;;;;;6101142;19;20250;-68
2023/01/13 03:35:17;;;;;;;15.45;3.75;;;;;;;;;;6099760;19;20038;-70
2023/01/13 03:37:36;;;;;;;16.27;4.32;;;;;;;;;;6100935;19;20718;-70
2023/01/13 03:39:44;;;;;;;15.25;2.92;;;;;;;;;;6099778;19;20475;-69
2023/01/13 03:41:53;;;;;;;16.60;3.80;;;;;;;;;;6096488;19;20475;-69
2023/01/13 03:46:23;;;;;;;22.92;4.65;;;;;;;;;;6099620;19;20014;-70
2023/01/13 03:48:32;;;;;;;10.57;3.22;;;;;;;;;;6102768;19;20078;-70
2023/01/13 03:50:43;;;;;;;12.77;3.13;;;;;;;;;;6102122;19;20019;-68
2023/01/13 03:52:50;;;;;;;9.68;2.60;;;;;;;;;;6094711;19;20025;-71
2023/01/13 03:54:59;;;;;;;15.07;3.55;;;;;;;;;;6102349;19;20367;-70
2023/01/13 03:57:06;;;;;;;16.58;3.53;;;;;;;;;;6098119;19;20471;-68
2023/01/13 03:59:14;;;;;;;18.70;3.47;;;;;;;;;;6099139;19;20841;-71
2023/01/13 04:01:22;;;;;;;14.05;3.15;;;;;;;;;;6101974;19;20006;-70
2023/01/13 04:03:33;;;;;;;21.80;3.75;;;;;;;;;;6104719;19;20023;-70
2023/01/13 04:05:43;;;;;;;15.63;3.72;;;;;;;;;;6107397;19;20489;-69
2023/01/13 04:07:52;;;;;;;10.15;2.42;;;;;;;;;;6096759;19;20035;-69
2023/01/13 04:09:58;;;;;;;12.25;2.80;;;;;;;;;;6099628;19;20474;-68
2023/01/13 04:12:12;;;;;;;14.60;2.50;;;;;;;;;;6096389;19;20010;-68
2023/01/13 04:14:18;;;;;;;13.55;2.95;;;;;;;;;;6099272;19;20014;-68
2023/01/13 04:16:23;;;;;;;12.65;2.38;;;;;;;;;;6100045;19;20002;-68
2023/01/13 04:18:29;;;;;;;10.85;2.85;;;;;;;;;;6100653;19;20010;-68
2023/01/13 04:20:34;;;;;;;15.23;3.38;;;;;;;;;;6098932;19;20014;-69
2023/01/13 04:22:42;;;;;;;8.80;2.60;;;;;;;;;;6100715;19;20484;-69
2023/01/13 04:24:46;;;;;;;5.90;2.15;;;;;;;;;;6100161;19;20019;-69
2023/01/13 04:26:52;;;;;;;14.20;2.53;;;;;;;;;;6101816;19;20062;-69
2023/01/13 04:28:57;;;;;;;12.80;2.75;;;;;;;;;;6097545;19;20025;-68
2023/01/13 04:31:03;;;;;;;18.02;2.95;;;;;;;;;;6100208;19;20013;-69
2023/01/13 04:33:08;;;;;;;10.20;2.65;;;;;;;;;;6099794;19;20006;-69
2023/01/13 04:35:13;;;;;;;9.55;2.38;;;;;;;;;;6101678;19;20496;-69
2023/01/13 04:37:18;;;;;;;16.67;3.45;;;;;;;;;;6103099;19;20013;-68
2023/01/13 04:39:26;;;;;;;8.98;2.25;;;;;;;;;;6106121;19;20010;-68
2023/01/13 04:41:56;;;;;;;10.73;2.72;;;;;;;;;;6107556;19;20030;-69
2023/01/13 04:43:56;;;;;;;13.05;2.55;;;;;;;;;;6103820;19;20043;-68
2023/01/13 04:46:01;;;;;;;19.95;3.35;;;;;;;;;;6105886;19;20812;-69
2023/01/13 04:48:06;;;;;;;18.92;3.47;;;;;;;;;;6107921;19;20010;-69
2023/01/13 04:50:18;;;;;;;21.85;3.20;;;;;;;;;;6098909;19;20137;-69
2023/01/13 04:52:23;;;;;;;16.42;4.03;;;;;;;;;;6104022;19;20014;-69
2023/01/13 04:54:30;;;;;;;16.52;3.20;;;;;;;;;;6106714;19;20003;-69
2023/01/13 04:56:35;;;;;;;15.98;3.67;;;;;;;;;;6106708;19;20003;-68
2023/01/13 04:58:40;;;;;;;15.60;3.53;;;;;;;;;;6102948;19;20006;-70
2023/01/13 05:00:45;;;;;;;14.98;3.92;;;;;;;;;;6102444;19;20023;-69
2023/01/13 05:02:52;;;;;;;10.35;3.17;;;;;;;;;;6105089;19;20024;-68
2023/01/13 05:04:57;;;;;;;15.52;3.30;;;;;;;;;;6107176;19;20014;-68
2023/01/13 05:07:02;;;;;;;8.02;2.78;;;;;;;;;;6105064;19;20013;-68
2023/01/13 05:09:07;;;;;;;12.15;3.53;;;;;;;;;;6106449;19;20598;-68
2023/01/13 05:18:22;;;;;;;17.33;3.30;;;;;;;;;;6099301;19;20046;-69
2023/01/13 05:20:27;;;;;;;16.60;3.72;;;;;;;;;;6105079;19;20015;-68
2023/01/13 05:27:09;;;;;;;18.77;4.55;;;;;;;;;;6103305;19;20014;-68
2023/01/13 05:29:14;;;;;;;14.88;3.08;;;;;;;;;;6104105;19;20014;-69
2023/01/13 05:31:18;;;;;;;11.25;3.33;;;;;;;;;;6100166;19;20018;-69
2023/01/13 05:33:23;;;;;;;17.83;3.83;;;;;;;;;;6101780;19;20042;-69
2023/01/13 05:35:28;;;;;;;15.85;3.10;;;;;;;;;;6082106;19;20019;-70
2023/01/13 05:37:33;;;;;;;11.77;2.75;;;;;;;;;;6105149;19;20117;-68
2023/01/13 05:44:15;;;;;;;14.45;2.88;;;;;;;;;;6101427;19;20006;-69
2023/01/13 05:46:20;;;;;;;14.98;3.17;;;;;;;;;;6103454;19;20085;-68
2023/01/13 05:48:26;;;;;;;14.13;3.80;;;;;;;;;;6102862;19;20013;-68
2023/01/13 05:50:33;;;;;;;20.52;3.13;;;;;;;;;;6099629;19;20026;-70
2023/01/13 05:52:38;;;;;;;10.38;2.88;;;;;;;;;;6102765;19;20343;-69
2023/01/13 05:54:43;;;;;;;16.90;3.40;;;;;;;;;;6103731;19;20038;-68
2023/01/13 05:56:48;;;;;;;24.45;3.47;;;;;;;;;;6101596;19;20010;-69
2023/01/13 05:58:53;;;;;;;15.02;3.25;;;;;;;;;;6101966;19;20509;-69
2023/01/13 06:01:05;;;;;;;14.48;3.13;;;;;;;;;;6104671;19;20027;-69
2023/01/13 06:03:10;;;;;;;14.55;3.42;;;;;;;;;;6103391;19;20014;-69
2023/01/13 06:05:15;;;;;;;15.93;3.10;;;;;;;;;;6105046;19;20010;-70
2023/01/13 06:07:20;;;;;;;12.45;3.20;;;;;;;;;;6103234;19;20033;-69
2023/01/13 06:09:25;;;;;;;24.13;4.38;;;;;;;;;;6103227;19;20016;-71
2023/01/13 06:11:32;;;;;;;13.20;3.63;;;;;;;;;;6103921;19;20007;-68
2023/01/13 06:13:36;;;;;;;24.23;4.05;;;;;;;;;;6104816;19;20021;-70
2023/01/13 06:15:41;;;;;;;15.85;3.45;;;;;;;;;;6103804;19;20579;-70
2023/01/13 06:17:49;;;;;;;15.20;2.90;;;;;;;;;;6101792;19;20020;-68
2023/01/13 06:19:54;;;;;;;12.95;2.83;;;;;;;;;;6104289;19;20030;-68
2023/01/13 06:21:59;;;;;;;11.90;3.33;;;;;;;;;;6101884;19;20498;-68
2023/01/13 06:24:04;;;;;;;16.00;3.70;;;;;;;;;;6098395;19;20010;-69
2023/01/13 06:26:15;;;;;;;20.15;4.47;;;;;;;;;;6099331;19;20021;-70
2023/01/13 06:28:20;;;;;;;16.83;3.50;;;;;;;;;;6097327;19;20048;-68
2023/01/13 06:30:24;;;;;;;23.73;4.78;;;;;;;;;;6098692;19;20510;-69
2023/01/13 06:32:33;;;;;;;18.00;3.30;;;;;;;;;;6099719;19;20017;-69
2023/01/13 06:34:41;;;;;;;15.18;2.88;;;;;;;;;;6101674;19;20011;-69
2023/01/13 06:36:49;;;;;;;18.50;4.15;;;;;;;;;;6100126;19;20006;-70
2023/01/13 06:38:57;;;;;;;17.30;3.47;;;;;;;;;;6101860;19;20014;-69
2023/01/13 06:41:04;;;;;;;18.00;3.85;;;;;;;;;;6099915;19;20017;-68
2023/01/13 06:43:15;;;;;;;11.57;3.78;;;;;;;;;;6099374;19;20017;-69
2023/01/13 06:45:22;;;;;;;20.40;4.15;;;;;;;;;;6100969;19;20011;-69
2023/01/13 06:47:26;;;;;;;24.27;4.25;;;;;;;;;;6099419;19;20019;-69
2023/01/13 06:49:32;;;;;;;19.85;4.78;;;;;;;;;;6098287;19;20011;-69
2023/01/13 06:51:39;;;;;;;16.35;3.53;;;;;;;;;;6083567;19;20031;-69
2023/01/13 06:53:47;;;;;;;17.27;3.15;;;;;;;;;;6094250;19;20011;-69
2023/01/13 06:55:52;;;;;;;20.20;3.67;;;;;;;;;;6099966;19;20039;-68
2023/01/13 06:57:58;;;;;;;15.40;3.58;;;;;;;;;;6098586;19;20570;-69
2023/01/13 07:00:04;;;;;;;11.65;3.17;;;;;;;;;;6101295;19;20486;-69
2023/01/13 07:02:09;;;;;;;22.90;3.45;;;;;;;;;;6099463;19;20017;-68
2023/01/13 07:04:15;;;;;;;15.60;3.20;;;;;;;;;;6093474;19;20026;-67
2023/01/13 07:06:20;;;;;;;28.00;4.00;;;;;;;;;;6100532;19;20014;-68
2023/01/13 07:08:27;;;;;;;17.17;3.00;;;;;;;;;;6097066;19;20038;-69
2023/01/13 07:10:33;;;;;;;19.73;3.75;;;;;;;;;;6102644;19;20009;-69
2023/01/13 07:15:17;;;;;;;18.23;4.50;;;;;;;;;;6099397;19;20475;-71
2023/01/13 07:17:23;;;;;;;16.17;3.28;;;;;;;;;;6105607;19;20011;-69
2023/01/13 07:19:29;;;;;;;19.88;3.97;;;;;;;;;;6104748;19;20010;-70
2023/01/13 07:21:34;;;;;;;12.70;2.90;;;;;;;;;;6104188;19;20007;-70
2023/01/13 07:23:43;;;;;;;14.57;3.22;;;;;;;;;;6100054;19;20098;-69
2023/01/13 07:25:47;;;;;;;15.57;2.85;;;;;;;;;;6103819;19;20017;-69
2023/01/13 07:27:52;;;;;;;20.50;4.10;;;;;;;;;;6105398;19;20027;-69
2023/01/13 07:29:57;;;;;;;16.88;3.67;;;;;;;;;;6101777;19;20010;-69
2023/01/13 07:32:03;;;;;;;14.88;3.60;;;;;;;;;;6077694;19;20131;-69
2023/01/13 07:34:08;;;;;;;14.02;3.45;;;;;;;;;;6101014;19;20069;-70
2023/01/13 07:36:13;;;;;;;12.80;2.95;;;;;;;;;;6081200;19;20483;-69
2023/01/13 07:38:18;;;;;;;22.83;4.00;;;;;;;;;;6098892;19;20019;-70
2023/01/13 07:40:26;;;;;;;11.57;2.30;;;;;;;;;;6101227;19;20082;-69
2023/01/13 07:44:48;;;;;;;13.18;3.35;;;;;;;;;;6101340;19;20094;-69
2023/01/13 07:46:53;;;;;;;22.20;4.43;;;;;;;;;;6077241;19;20053;-70
2023/01/13 07:48:58;;;;;;;36.08;4.88;;;;;;;;;;6099183;19;20369;-69
2023/01/13 07:51:03;;;;;;;13.38;2.67;;;;;;;;;;6100580;19;20006;-69
2023/01/13 07:53:11;;;;;;;16.42;3.80;;;;;;;;;;6100901;19;20074;-69
2023/01/13 07:55:16;;;;;;;17.85;3.22;;;;;;;;;;6101018;19;20571;-69
2023/01/13 07:57:23;;;;;;;18.33;3.47;;;;;;;;;;6101868;19;20924;-69
2023/01/13 07:59:28;;;;;;;20.15;3.60;;;;;;;;;;6101020;19;20011;-69
2023/01/13 08:01:33;;;;;;;19.25;4.85;;;;;;;;;;6100850;19;20013;-69
2023/01/13 08:03:38;;;;;;;21.40;4.22;;;;;;;;;;6101619;19;20026;-69
2023/01/13 08:05:43;;;;;;;17.70;3.85;;;;;;;;;;6101256;19;20019;-70
2023/01/13 08:07:47;;;;;;;16.58;4.00;;;;;;;;;;6103231;19;20017;-69
2023/01/13 08:09:52;;;;;;;11.80;2.95;;;;;;;;;;6101967;19;20072;-69
2023/01/13 08:13:16;;;;;;;16.50;4.05;;;;;;;;;;6103653;19;20010;-71
2023/01/13 08:14:25;;;;;;;20.65;3.55;;;;;;;;;;6103611;19;20031;-71
2023/01/13 08:16:34;;;;;;;13.63;2.70;;;;;;;;;;6106036;19;20499;-71
2023/01/13 08:18:40;;;;;;;14.77;3.38;;;;;;;;;;6107551;19;20015;-72
2023/01/13 08:20:45;;;;;;;18.75;3.70;;;;;;;;;;6105254;19;20304;-71
2023/01/13 08:22:50;;;;;;;16.42;3.65;;;;;;;;;;6108048;19;20014;-72
2023/01/13 08:24:55;;;;;;;19.75;3.53;;;;;;;;;;6107318;19;20010;-71
2023/01/13 08:26:59;;;;;;;13.30;2.95;;;;;;;;;;6108493;19;20003;-69
2023/01/13 08:29:04;;;;;;;17.73;3.60;;;;;;;;;;6106040;19;20018;-71
2023/01/13 08:31:14;;;;;;;8.23;2.13;;;;;;;;;;6106870;19;20015;-71
2023/01/13 08:33:19;;;;;;;20.30;3.50;;;;;;;;;;6107540;19;20661;-70
2023/01/13 08:35:25;;;;;;;19.40;3.70;;;;;;;;;;6108254;19;20015;-70
2023/01/13 08:37:30;;;;;;;14.55;3.88;;;;;;;;;;6105405;19;20019;-71
2023/01/13 08:39:35;;;;;;;19.13;3.67;;;;;;;;;;6106484;19;20262;-69
2023/01/13 08:43:56;;;;;;;15.77;4.00;;;;;;;;;;6107746;19;20089;-69
2023/01/13 08:46:04;;;;;;;19.55;4.10;;;;;;;;;;6106828;19;20013;-69
2023/01/13 08:48:11;;;;;;;19.92;4.85;;;;;;;;;;6084938;19;20345;-70
2023/01/13 08:50:16;;;;;;;19.17;4.10;;;;;;;;;;6080379;19;20517;-68
2023/01/13 08:52:22;;;;;;;12.68;3.45;;;;;;;;;;6082195;19;20414;-69
2023/01/13 08:54:27;;;;;;;18.63;3.65;;;;;;;;;;6103164;19;20094;-68
2023/01/13 08:56:34;;;;;;;17.75;3.80;;;;;;;;;;6107665;19;20013;-69
2023/01/13 08:58:39;;;;;;;11.20;3.25;;;;;;;;;;6106156;19;20369;-69
2023/01/13 09:00:45;;;;;;;14.27;3.45;;;;;;;;;;6103478;19;20467;-69
2023/01/13 09:02:50;;;;;;;17.45;3.83;;;;;;;;;;6107037;19;20033;-67
2023/01/13 09:04:59;;;;;;;23.73;4.35;;;;;;;;;;6106561;19;20011;-68
2023/01/13 09:07:04;;;;;;;21.75;4.57;;;;;;;;;;6104596;19;20015;-68
2023/01/13 09:09:08;;;;;;;16.15;3.78;;;;;;;;;;6107146;19;20382;-69
2023/01/13 09:13:37;;;;;;;11.80;2.92;;;;;;;;;;6108024;19;20082;-67
2023/01/13 09:15:43;;;;;;;18.45;3.88;;;;;;;;;;6106735;19;20014;-69
2023/01/13 09:17:48;;;;;;;14.93;2.97;;;;;;;;;;6107210;19;20021;-68
2023/01/13 09:19:53;;;;;;;14.38;3.45;;;;;;;;;;6105619;19;20050;-68
2023/01/13 09:22:00;;;;;;;22.67;3.95;;;;;;;;;;6100639;19;20015;-69
2023/01/13 09:24:06;;;;;;;18.60;4.13;;;;;;;;;;6106110;19;20011;-69
2023/01/13 09:26:11;;;;;;;13.88;3.20;;;;;;;;;;6104249;19;20010;-69
2023/01/13 09:28:18;;;;;;;15.93;4.03;;;;;;;;;;6077972;19;20023;-69
2023/01/13 09:30:23;;;;;;;22.88;3.92;;;;;;;;;;6106308;19;20081;-71
2023/01/13 09:32:28;;;;;;;21.35;3.97;;;;;;;;;;6102224;19;20019;-69
2023/01/13 09:36:50;;;;;;;20.35;5.32;;;;;;;;;;6103409;19;20026;-70
2023/01/13 09:38:58;;;;;;;23.13;3.20;;;;;;;;;;6106288;19;20471;-70
2023/01/13 09:43:52;;;;;;;15.90;3.33;;;;;;;;;;6106819;19;20085;-70
2023/01/13 09:45:52;;;;;;;12.30;3.20;;;;;;;;;;6103874;19;20011;-70
2023/01/13 09:48:04;;;;;;;20.30;4.72;;;;;;;;;;6106779;19;20011;-70
2023/01/13 09:50:19;;;;;;;16.80;3.50;;;;;;;;;;6105791;19;20035;-68
2023/01/13 09:52:25;;;;;;;20.38;4.03;;;;;;;;;;6100422;19;20666;-69
2023/01/13 09:54:36;;;;;;;20.55;4.55;;;;;;;;;;6105723;19;20030;-69
2023/01/13 09:56:41;;;;;;;17.55;3.55;;;;;;;;;;6104795;19;20014;-70
2023/01/13 09:58:46;;;;;;;12.88;3.85;;;;;;;;;;6105332;19;20010;-69
2023/01/13 10:00:59;;;;;;;15.43;3.42;;;;;;;;;;6100411;19;20377;-70
2023/01/13 10:03:17;;;;;;;19.27;4.10;;;;;;;;;;6103277;19;20018;-71
2023/01/13 10:05:31;;;;;;;15.73;3.47;;;;;;;;;;6105422;19;20014;-71
2023/01/13 10:07:39;;;;;;;19.70;3.17;;;;;;;;;;6104008;19;20017;-71
2023/01/13 10:09:51;;;;;;;14.30;3.42;;;;;;;;;;6105375;19;20011;-71
2023/01/13 10:14:20;;;;;;;18.02;4.28;;;;;;;;;;6103198;19;20853;-70
2023/01/13 10:16:35;;;;;;;15.57;3.33;;;;;;;;;;6106809;19;20353;-71
2023/01/13 10:18:47;;;;;;;11.15;2.25;;;;;;;;;;6105119;19;20007;-70
2023/01/13 10:20:58;;;;;;;22.17;3.78;;;;;;;;;;6104496;19;20082;-70
2023/01/13 10:23:09;;;;;;;12.07;2.80;;;;;;;;;;6102593;19;20086;-71
2023/01/13 10:25:30;;;;;;;14.38;3.50;;;;;;;;;;6104822;19;20449;-71
2023/01/13 10:27:36;;;;;;;15.50;4.07;;;;;;;;;;6105847;19;20014;-72
2023/01/13 10:29:44;;;;;;;17.80;2.65;;;;;;;;;;6103771;19;20497;-71
2023/01/13 10:31:49;;;;;;;15.38;3.10;;;;;;;;;;6104066;19;20006;-72
2023/01/13 10:34:00;;;;;;;19.65;3.53;;;;;;;;;;6103733;19;20006;-71
2023/01/13 10:36:06;;;;;;;11.93;3.17;;;;;;;;;;6106050;19;20014;-70
2023/01/13 10:38:17;;;;;;;14.20;4.05;;;;;;;;;;6105241;19;20101;-72
2023/01/13 10:40:22;;;;;;;14.02;3.33;;;;;;;;;;6104722;19;20368;-70
2023/01/13 10:42:30;;;;;;;12.07;3.03;;;;;;;;;;6103117;19;20622;-70
2023/01/13 10:44:48;;;;;;;9.43;2.80;;;;;;;;;;6106032;19;20006;-70
2023/01/13 10:46:55;;;;;;;14.77;2.60;;;;;;;;;;6103970;19;20347;-70
2023/01/13 10:49:02;;;;;;;14.25;3.28;;;;;;;;;;6105224;19;20010;-70
2023/01/13 10:51:21;;;;;;;14.07;3.78;;;;;;;;;;6102544;19;20013;-71
2023/01/13 10:53:29;;;;;;;16.98;2.40;;;;;;;;;;6102354;19;20014;-71
2023/01/13 10:55:39;;;;;;;11.07;2.72;;;;;;;;;;6104747;19;20046;-71
2023/01/13 10:57:46;;;;;;;8.90;3.08;;;;;;;;;;6103242;19;20082;-70
2023/01/13 10:59:52;;;;;;;7.25;2.78;;;;;;;;;;6102770;19;20019;-70
2023/01/13 11:02:05;;;;;;;18.38;2.75;;;;;;;;;;6105025;19;20010;-70
2023/01/13 11:04:34;;;;;;;11.85;3.40;;;;;;;;;;6099401;19;20049;-71
2023/01/13 11:06:39;;;;;;;11.65;3.17;;;;;;;;;;6103835;19;20329;-69
2023/01/13 11:08:45;;;;;;;13.35;2.72;;;;;;;;;;6105803;19;20014;-70
2023/01/13 11:10:52;;;;;;;16.67;3.70;;;;;;;;;;6104688;19;20017;-70
2023/01/13 11:13:07;;;;;;;16.50;3.28;;;;;;;;;;6104839;19;20833;-69
2023/01/13 11:15:16;;;;;;;15.95;2.47;;;;;;;;;;6103154;19;20014;-70
2023/01/13 11:17:34;;;;;;;14.38;3.83;;;;;;;;;;6099895;19;20007;-69
2023/01/13 11:19:42;;;;;;;17.17;3.55;;;;;;;;;;6101990;19;20011;-68
2023/01/13 11:21:51;;;;;;;9.73;2.88;;;;;;;;;;6100626;19;20011;-69
2023/01/13 11:24:03;;;;;;;13.00;2.83;;;;;;;;;;6101183;19;21360;-71
2023/01/13 11:26:16;;;;;;;12.18;3.38;;;;;;;;;;6100240;19;20003;-69
2023/01/13 11:28:36;;;;;;;14.90;4.65;;;;;;;;;;6102053;19;20003;-70
2023/01/13 11:30:45;;;;;;;12.73;2.97;;;;;;;;;;6101235;19;19998;-70
2023/01/13 11:33:05;;;;;;;10.90;2.92;;;;;;;;;;6101485;19;20906;-72
2023/01/13 11:35:17;;;;;;;11.05;3.00;;;;;;;;;;6104439;19;20011;-70
2023/01/13 11:37:25;;;;;;;11.30;3.00;;;;;;;;;;6101715;19;20018;-70
2023/01/13 11:39:46;;;;;;;10.18;2.45;;;;;;;;;;6103333;19;20576;-69
2023/01/13 11:44:24;;;;;;;15.90;3.05;;;;;;;;;;6100654;19;20018;-70
2023/01/13 11:46:32;;;;;;;13.18;3.05;;;;;;;;;;6110812;19;20014;-70
2023/01/13 11:48:41;;;;;;;14.55;3.00;;;;;;;;;;6110759;19;20007;-69
2023/01/13 11:50:52;;;;;;;10.57;3.28;;;;;;;;;;6109952;19;20017;-70
2023/01/13 11:53:09;;;;;;;11.88;2.30;;;;;;;;;;6108024;19;20021;-70
2023/01/13 11:55:27;;;;;;;15.40;3.13;;;;;;;;;;6110540;19;20026;-69
2023/01/13 11:57:57;;;;;;;17.00;3.38;;;;;;;;;;6110094;19;20019;-69
2023/01/13 12:00:16;;;;;;;22.63;3.40;;;;;;;;;;6109194;19;20062;-71
2023/01/13 12:02:38;;;;;;;12.80;3.13;;;;;;;;;;6104910;19;20590;-69
2023/01/13 12:04:48;;;;;;;13.65;4.22;;;;;;;;;;6108632;19;20363;-71
2023/01/13 12:07:01;;;;;;;11.60;2.85;;;;;;;;;;6110565;19;20018;-69
2023/01/13 12:09:30;;;;;;;14.10;2.88;;;;;;;;;;6109086;19;20006;-69
2023/01/13 12:12:18;;;;;;;8.88;2.83;;;;;;;;;;6107957;19;20006;-70
2023/01/13 12:14:15;;;;;;;14.38;2.95;;;;;;;;;;6107427;19;20114;-70
2023/01/13 12:16:27;;;;;;;10.70;2.30;;;;;;;;;;6101697;19;20023;-70
2023/01/13 12:18:42;;;;;;;12.43;2.47;;;;;;;;;;6109360;19;20042;-70
2023/01/13 12:20:54;;;;;;;12.00;2.53;;;;;;;;;;6105629;19;20082;-69
2023/01/13 12:23:02;;;;;;;9.85;2.03;;;;;;;;;;6109480;19;20543;-70
2023/01/13 12:25:13;;;;;;;9.43;2.05;;;;;;;;;;6108290;19;20015;-70
2023/01/13 12:27:23;;;;;;;15.45;3.72;;;;;;;;;;6107905;19;20015;-70
2023/01/13 12:29:34;;;;;;;16.15;3.38;;;;;;;;;;6110150;19;20014;-69
2023/01/13 12:31:43;;;;;;;12.63;2.55;;;;;;;;;;6108402;19;20344;-69
2023/01/13 12:34:03;;;;;;;8.63;2.20;;;;;;;;;;6109164;19;20038;-71
2023/01/13 12:36:13;;;;;;;10.95;2.55;;;;;;;;;;6106859;19;20011;-71
2023/01/13 12:38:23;;;;;;;13.60;2.53;;;;;;;;;;6103483;19;20042;-70
2023/01/13 12:40:38;;;;;;;13.88;2.67;;;;;;;;;;6107616;19;20042;-72
2023/01/13 12:45:23;;;;;;;14.27;2.72;;;;;;;;;;6105160;19;20013;-71
2023/01/13 12:47:39;;;;;;;11.13;2.47;;;;;;;;;;6107544;19;20011;-72
2023/01/13 12:49:44;;;;;;;9.00;2.25;;;;;;;;;;6105824;19;20022;-72
2023/01/13 12:52:25;;;;;;;10.25;2.15;;;;;;;;;;6107822;19;20034;-72
2023/01/13 12:54:52;;;;;;;14.23;3.00;;;;;;;;;;6099125;19;20011;-69
2023/01/13 12:56:57;;;;;;;11.23;2.60;;;;;;;;;;6106955;19;20093;-70
2023/01/13 12:59:47;;;;;;;10.50;2.50;;;;;;;;;;6107539;19;20040;-70
2023/01/13 13:01:53;;;;;;;11.05;2.45;;;;;;;;;;6106937;19;20014;-70
2023/01/13 13:04:12;;;;;;;12.60;3.05;;;;;;;;;;6083866;19;20172;-69
2023/01/13 13:06:20;;;;;;;14.07;2.67;;;;;;;;;;6104618;19;20010;-70
2023/01/13 13:08:28;;;;;;;11.77;3.15;;;;;;;;;;6105043;19;20021;-70
2023/01/13 13:10:39;;;;;;;8.95;2.38;;;;;;;;;;6106836;19;20467;-69
2023/01/13 13:15:27;;;;;;;15.82;3.08;;;;;;;;;;6106226;19;20034;-73
2023/01/13 13:17:43;;;;;;;15.63;3.05;;;;;;;;;;6106443;19;20780;-73
2023/01/13 13:19:52;;;;;;;10.13;2.63;;;;;;;;;;6102036;19;20002;-73
2023/01/13 13:22:24;;;;;;;20.08;2.90;;;;;;;;;;6099881;19;20027;-71
2023/01/13 13:24:31;;;;;;;16.15;2.85;;;;;;;;;;6101413;19;20021;-71
2023/01/13 13:26:41;;;;;;;13.30;2.95;;;;;;;;;;6105699;19;20007;-72
2023/01/13 13:28:54;;;;;;;16.27;3.92;;;;;;;;;;6105483;19;20011;-72
2023/01/13 13:31:10;;;;;;;11.82;2.65;;;;;;;;;;6107333;19;20094;-73
2023/01/13 13:33:33;;;;;;;15.95;3.20;;;;;;;;;;6105277;19;20229;-73
2023/01/13 13:35:51;;;;;;;9.20;3.13;;;;;;;;;;6106975;19;20480;-70